Time;durP1;ratioP1;P1;durP2;ratioP2;P2;SDS_P1;SDS_P2;PMS_P1;PMS_P2;Temp;Humidity;BMP_temperature;BMP_pressure;BME280_temperature;BME280_humidity;BME280_pressure;Samples;Min_cycle;Max_cycle;Signal;HPM_P1;HPM_P2
2023/01/04 05:00:32;;;;;;;2.05;1.20;;;7.00;99.90;;;;;;5846722;23;20237;-65
2023/01/04 05:02:58;;;;;;;4.22;0.88;;;7.00;99.90;;;;;;4895034;29;20212;-66
2023/01/04 05:05:25;;;;;;;1.05;1.05;;;7.00;99.90;;;;;;4895616;29;20220;-64
2023/01/04 05:07:52;;;;;;;0.50;0.50;;;7.00;99.90;;;;;;4892993;29;20216;-64
2023/01/04 05:10:19;;;;;;;1.17;1.10;;;6.90;99.90;;;;;;4895362;29;20532;-64
2023/01/04 05:12:59;;;;;;;0.35;0.35;;;6.90;99.90;;;;;;4892391;29;20210;-64
2023/01/04 05:15:27;;;;;;;0.63;0.63;;;6.90;99.90;;;;;;4891703;29;20208;-65
2023/01/04 05:17:56;;;;;;;1.40;1.40;;;6.90;99.90;;;;;;4890288;29;20575;-66
2023/01/04 05:20:22;;;;;;;2.17;1.77;;;6.90;99.90;;;;;;4896445;29;20212;-65
2023/01/04 05:22:49;;;;;;;0.25;0.25;;;6.90;99.90;;;;;;4898071;29;20216;-64
2023/01/04 05:25:17;;;;;;;1.15;0.50;;;6.90;99.90;;;;;;4889509;29;20299;-65
2023/01/04 05:27:44;;;;;;;0.30;0.30;;;6.90;99.90;;;;;;4896851;29;20592;-64
2023/01/04 05:32:58;;;;;;;1.98;1.17;;;6.90;99.90;;;;;;4884972;29;20215;-65
2023/01/04 05:35:25;;;;;;;0.60;0.60;;;6.90;99.90;;;;;;4887859;29;20209;-64
2023/01/04 05:37:52;;;;;;;0.73;0.73;;;6.90;99.90;;;;;;4890375;29;20221;-64
2023/01/04 05:40:19;;;;;;;1.67;0.85;;;6.90;99.90;;;;;;4886449;29;20248;-66
2023/01/04 05:42:45;;;;;;;0.10;0.10;;;6.90;99.90;;;;;;4887549;29;20640;-64
2023/01/04 05:45:14;;;;;;;0.70;0.70;;;6.90;99.90;;;;;;4895593;29;20212;-65
2023/01/04 05:47:41;;;;;;;0.40;0.40;;;6.90;99.90;;;;;;4886686;29;20309;-65
2023/01/04 05:50:11;;;;;;;0.95;0.45;;;6.90;99.90;;;;;;4888227;29;20231;-65
2023/01/04 05:52:37;;;;;;;1.08;1.08;;;7.00;99.90;;;;;;4882675;29;20574;-65
2023/01/04 05:55:05;;;;;;;0.63;0.63;;;7.00;99.90;;;;;;4889219;29;20213;-65
2023/01/04 05:57:31;;;;;;;0.70;0.65;;;7.00;99.90;;;;;;4896131;29;20209;-66
2023/01/04 05:59:58;;;;;;;2.15;1.10;;;7.00;99.90;;;;;;4889256;29;20305;-66
2023/01/04 06:02:27;;;;;;;0.35;0.35;;;7.00;99.90;;;;;;4891987;29;20233;-64
2023/01/04 06:04:54;;;;;;;1.60;1.50;;;7.10;99.90;;;;;;4887993;29;20228;-65
2023/01/04 06:07:22;;;;;;;1.90;1.58;;;7.10;99.90;;;;;;4890672;29;20241;-65
2023/01/04 06:09:49;;;;;;;0.47;0.47;;;7.10;99.90;;;;;;4895172;29;20236;-64
2023/01/04 06:12:16;;;;;;;0.63;0.63;;;7.20;99.90;;;;;;4891541;29;20339;-65
2023/01/04 06:14:43;;;;;;;0.50;0.50;;;7.20;99.90;;;;;;4891088;29;20232;-65
2023/01/04 06:17:09;;;;;;;0.55;0.55;;;7.20;99.90;;;;;;4897570;29;20208;-65
2023/01/04 06:19:36;;;;;;;0.75;0.45;;;7.30;99.90;;;;;;4891536;29;20206;-65
2023/01/04 06:22:03;;;;;;;0.40;0.40;;;7.30;99.90;;;;;;4888560;29;20241;-65
2023/01/04 06:24:32;;;;;;;0.38;0.38;;;7.30;99.90;;;;;;4892838;29;20212;-65
2023/01/04 06:26:59;;;;;;;5.70;0.88;;;7.30;99.90;;;;;;4894910;29;20686;-65
2023/01/04 06:29:26;;;;;;;1.02;0.70;;;7.40;99.90;;;;;;4895663;29;20704;-65
2023/01/04 06:31:53;;;;;;;0.70;0.70;;;7.40;99.90;;;;;;4896090;29;20549;-65
2023/01/04 06:34:20;;;;;;;0.80;0.80;;;7.40;99.90;;;;;;4887801;29;20224;-65
2023/01/04 06:36:46;;;;;;;1.77;1.63;;;7.50;99.90;;;;;;4895234;29;20215;-66
2023/01/04 06:39:13;;;;;;;0.65;0.65;;;7.50;99.90;;;;;;4892196;29;20205;-65
2023/01/04 06:41:41;;;;;;;1.95;0.60;;;7.50;99.90;;;;;;4895083;29;20229;-65
2023/01/04 06:44:08;;;;;;;0.90;0.43;;;7.50;99.90;;;;;;4894157;29;20209;-65
2023/01/04 06:46:35;;;;;;;0.70;0.70;;;7.60;99.90;;;;;;4889519;29;20331;-65
2023/01/04 06:49:02;;;;;;;0.50;0.50;;;7.60;99.90;;;;;;4895928;29;20228;-64
2023/01/04 06:51:29;;;;;;;0.50;0.50;;;7.60;99.90;;;;;;4878709;29;20257;-66
2023/01/04 06:53:56;;;;;;;6.00;0.88;;;7.70;99.90;;;;;;4887347;29;20221;-63
2023/01/04 06:56:23;;;;;;;0.55;0.55;;;7.70;99.90;;;;;;4887246;29;20212;-64
2023/01/04 06:58:51;;;;;;;0.50;0.50;;;7.70;99.90;;;;;;4878868;29;20218;-64
2023/01/04 07:01:17;;;;;;;0.52;0.52;;;7.70;99.90;;;;;;4891326;29;20245;-65
2023/01/04 07:03:44;;;;;;;0.43;0.43;;;7.70;99.90;;;;;;4893317;29;20662;-64
2023/01/04 07:06:11;;;;;;;0.30;0.30;;;7.70;99.90;;;;;;4891516;29;20235;-65
2023/01/04 07:08:38;;;;;;;0.60;0.60;;;7.80;99.90;;;;;;4889001;29;20248;-64
2023/01/04 07:11:05;;;;;;;0.57;0.57;;;7.80;99.90;;;;;;4894600;29;20228;-64
2023/01/04 07:13:31;;;;;;;0.28;0.28;;;7.80;99.90;;;;;;4885595;29;20226;-64
2023/01/04 07:15:59;;;;;;;0.35;0.35;;;7.80;99.90;;;;;;4888408;29;20213;-65
2023/01/04 07:18:26;;;;;;;0.90;0.85;;;7.90;99.90;;;;;;4891548;29;20307;-63
2023/01/04 07:20:53;;;;;;;0.50;0.30;;;7.90;99.90;;;;;;4888054;29;20823;-64
2023/01/04 07:23:19;;;;;;;1.23;0.80;;;8.00;99.90;;;;;;4886130;29;20285;-65
2023/01/04 07:25:46;;;;;;;0.82;0.60;;;8.00;99.90;;;;;;4893250;29;20213;-65
2023/01/04 07:29:13;;;;;;;0.47;0.47;;;8.00;99.90;;;;;;4885688;29;20295;-65
2023/01/04 07:31:06;;;;;;;0.40;0.40;;;8.00;99.90;;;;;;4889918;29;20483;-64
2023/01/04 07:33:32;;;;;;;0.68;0.68;;;8.00;99.90;;;;;;4890219;29;20256;-64
2023/01/04 07:36:02;;;;;;;0.28;0.28;;;8.10;99.90;;;;;;4885585;29;20217;-65
2023/01/04 07:38:29;;;;;;;0.35;0.35;;;8.10;99.90;;;;;;4877141;29;20667;-64
2023/01/04 07:40:56;;;;;;;0.52;0.52;;;8.10;99.90;;;;;;4891336;29;20232;-64
2023/01/04 07:43:22;;;;;;;0.32;0.32;;;8.10;99.90;;;;;;4888684;29;20218;-63
2023/01/04 07:45:49;;;;;;;1.42;0.88;;;8.10;99.90;;;;;;4892777;29;20584;-64
2023/01/04 07:48:17;;;;;;;2.45;1.10;;;8.20;99.90;;;;;;4892796;29;20213;-64
2023/01/04 07:50:45;;;;;;;0.75;0.75;;;8.20;99.90;;;;;;4893872;29;20594;-64
2023/01/04 07:53:12;;;;;;;0.40;0.40;;;8.20;99.90;;;;;;4894562;29;20293;-63
2023/01/04 07:55:39;;;;;;;0.80;0.80;;;8.20;99.90;;;;;;4894199;29;20218;-63
2023/01/04 07:58:05;;;;;;;0.55;0.55;;;8.30;99.90;;;;;;4893283;29;20228;-63
2023/01/04 08:00:32;;;;;;;0.60;0.60;;;8.30;99.90;;;;;;4891508;29;20480;-64
2023/01/04 08:02:59;;;;;;;2.60;0.57;;;8.30;99.90;;;;;;4892319;29;20219;-64
2023/01/04 08:05:27;;;;;;;0.65;0.65;;;8.30;99.90;;;;;;4889283;29;20322;-64
2023/01/04 08:07:53;;;;;;;0.45;0.45;;;8.40;99.90;;;;;;4890643;29;20221;-64
2023/01/04 08:10:20;;;;;;;0.80;0.80;;;8.40;99.90;;;;;;4892700;29;20325;-64
2023/01/04 08:12:47;;;;;;;0.68;0.68;;;8.50;99.90;;;;;;4892282;29;20284;-64
2023/01/04 08:15:14;;;;;;;0.70;0.70;;;8.50;99.90;;;;;;4894037;29;20220;-63
2023/01/04 08:17:41;;;;;;;0.80;0.80;;;8.50;99.90;;;;;;4888795;29;20221;-63
2023/01/04 08:20:09;;;;;;;2.47;0.68;;;8.50;99.90;;;;;;4884524;29;20216;-64
2023/01/04 08:22:37;;;;;;;0.47;0.43;;;8.50;99.90;;;;;;4893906;29;20606;-64
2023/01/04 08:25:05;;;;;;;4.80;0.90;;;8.60;99.90;;;;;;4889145;29;20220;-63
2023/01/04 08:27:32;;;;;;;1.00;1.00;;;8.60;99.90;;;;;;4889409;29;20211;-62
2023/01/04 08:29:59;;;;;;;8.73;3.45;;;8.60;99.90;;;;;;4886802;29;20242;-63
2023/01/04 08:32:26;;;;;;;4.28;3.83;;;8.70;99.90;;;;;;4890956;29;20237;-64
2023/01/04 08:34:53;;;;;;;3.17;2.85;;;8.70;99.90;;;;;;4888893;29;20218;-64
2023/01/04 08:37:20;;;;;;;2.38;2.28;;;8.70;99.90;;;;;;4881336;29;20213;-64
2023/01/04 08:39:48;;;;;;;2.90;1.42;;;8.70;99.90;;;;;;4890919;29;20697;-64
2023/01/04 08:42:15;;;;;;;4.55;1.65;;;8.80;99.90;;;;;;4890291;29;20230;-64
2023/01/04 08:44:42;;;;;;;4.25;3.33;;;8.80;99.90;;;;;;4893553;29;20218;-65
2023/01/04 08:47:09;;;;;;;3.38;2.42;;;8.90;99.90;;;;;;4894929;29;20661;-64
2023/01/04 08:49:36;;;;;;;0.90;0.90;;;8.90;99.90;;;;;;4894086;29;20232;-64
2023/01/04 08:52:03;;;;;;;0.57;0.57;;;8.90;99.90;;;;;;4894055;29;20250;-65
2023/01/04 08:54:29;;;;;;;0.80;0.80;;;9.00;99.90;;;;;;4894531;29;20214;-64
2023/01/04 08:56:57;;;;;;;2.42;0.77;;;9.00;99.90;;;;;;4891498;29;20225;-63
2023/01/04 08:59:24;;;;;;;1.00;1.00;;;9.00;99.90;;;;;;4888830;29;20209;-64
2023/01/04 09:01:51;;;;;;;0.70;0.70;;;9.00;99.90;;;;;;4893991;29;20238;-63
2023/01/04 09:04:18;;;;;;;0.60;0.50;;;9.10;99.90;;;;;;4896042;29;20345;-64
2023/01/04 09:06:44;;;;;;;0.57;0.57;;;9.10;99.90;;;;;;4887195;29;20234;-65
2023/01/04 09:09:11;;;;;;;0.38;0.38;;;9.10;99.90;;;;;;4894241;29;20214;-64
2023/01/04 09:11:38;;;;;;;0.55;0.55;;;9.10;99.90;;;;;;4894383;29;20226;-64
2023/01/04 09:14:09;;;;;;;0.45;0.45;;;9.20;99.90;;;;;;4893444;29;20219;-63
2023/01/04 09:16:36;;;;;;;0.95;0.95;;;9.20;99.90;;;;;;4894719;29;20230;-63
2023/01/04 09:19:04;;;;;;;0.50;0.50;;;9.30;99.90;;;;;;4896843;29;20214;-64
2023/01/04 09:21:31;;;;;;;0.57;0.57;;;9.30;99.90;;;;;;4898289;29;20237;-65
2023/01/04 09:23:58;;;;;;;0.43;0.43;;;9.40;99.90;;;;;;4897096;29;20210;-65
2023/01/04 09:26:25;;;;;;;0.30;0.30;;;9.50;99.90;;;;;;4889003;29;20218;-65
2023/01/04 09:28:54;;;;;;;0.88;0.88;;;9.50;99.90;;;;;;4897166;29;20246;-65
2023/01/04 09:31:23;;;;;;;2.38;2.17;;;9.50;99.90;;;;;;4886640;29;20233;-66
2023/01/04 09:33:50;;;;;;;0.60;0.60;;;9.60;99.90;;;;;;4894505;29;21111;-65
2023/01/04 09:36:18;;;;;;;1.00;0.88;;;9.60;99.90;;;;;;4893815;29;20214;-65
2023/01/04 09:38:45;;;;;;;0.82;0.82;;;9.60;99.90;;;;;;4894571;29;20680;-63
2023/01/04 09:41:22;;;;;;;0.85;0.85;;;9.60;99.90;;;;;;4894028;29;20241;-63
2023/01/04 09:43:51;;;;;;;0.47;0.47;;;9.70;99.90;;;;;;4889463;29;20222;-64
2023/01/04 09:46:30;;;;;;;1.17;1.17;;;9.70;99.90;;;;;;4886844;29;20604;-64
2023/01/04 09:49:11;;;;;;;1.15;1.15;;;9.70;99.90;;;;;;4890357;29;20217;-63
2023/01/04 09:51:41;;;;;;;0.90;0.90;;;9.70;99.90;;;;;;4886202;29;20240;-64
2023/01/04 09:54:15;;;;;;;1.33;1.23;;;9.80;99.90;;;;;;4890697;29;20214;-64
2023/01/04 09:56:48;;;;;;;0.95;0.95;;;9.80;99.90;;;;;;4892545;29;20304;-64
2023/01/04 09:59:17;;;;;;;2.72;2.55;;;9.80;99.90;;;;;;4896647;29;20570;-64
2023/01/04 10:01:49;;;;;;;4.47;0.77;;;9.90;99.90;;;;;;4889139;29;20249;-65
2023/01/04 10:04:23;;;;;;;1.60;1.50;;;9.90;99.90;;;;;;4894735;29;20675;-64
2023/01/04 10:06:51;;;;;;;0.50;0.50;;;9.90;99.90;;;;;;4889007;29;20244;-64
2023/01/04 10:09:19;;;;;;;1.33;1.33;;;9.90;99.90;;;;;;4895086;29;20654;-64
2023/01/04 10:11:58;;;;;;;1.83;1.83;;;9.90;99.90;;;;;;4891466;29;20282;-64
2023/01/04 10:14:46;;;;;;;1.38;1.27;;;10.00;99.90;;;;;;4895888;29;20206;-65
2023/01/04 10:17:24;;;;;;;1.35;1.35;;;10.00;99.90;;;;;;4889105;29;20210;-64
2023/01/04 10:20:09;;;;;;;0.70;0.70;;;10.00;99.90;;;;;;4886730;29;20201;-65
2023/01/04 10:22:46;;;;;;;1.88;1.48;;;10.00;99.90;;;;;;4895270;29;20246;-65
2023/01/04 10:25:29;;;;;;;0.52;0.52;;;10.00;99.90;;;;;;4894960;29;20226;-65
2023/01/04 10:28:10;;;;;;;0.82;0.82;;;10.10;99.90;;;;;;4889904;29;20244;-65
2023/01/04 10:30:47;;;;;;;0.55;0.55;;;10.10;99.90;;;;;;4892027;29;20259;-65
2023/01/04 10:33:23;;;;;;;0.50;0.50;;;10.10;99.90;;;;;;4888234;29;20204;-65
2023/01/04 10:35:50;;;;;;;0.50;0.50;;;10.00;99.90;;;;;;4893984;29;20208;-65
2023/01/04 10:38:20;;;;;;;1.05;0.50;;;10.10;99.90;;;;;;4889444;29;20214;-65
2023/01/04 10:40:49;;;;;;;2.05;0.70;;;10.10;99.90;;;;;;4887095;29;20574;-64
2023/01/04 10:43:28;;;;;;;0.90;0.90;;;10.10;99.90;;;;;;4884575;29;20310;-64
2023/01/04 10:46:00;;;;;;;0.43;0.43;;;10.10;99.90;;;;;;4884596;29;20218;-65
2023/01/04 10:48:39;;;;;;;0.30;0.30;;;10.10;99.90;;;;;;4894957;29;20259;-65
2023/01/04 10:51:06;;;;;;;0.80;0.80;;;10.10;99.90;;;;;;4894519;29;20242;-64
2023/01/04 10:53:39;;;;;;;1.98;1.95;;;10.10;99.90;;;;;;4877732;29;20283;-64
2023/01/04 10:56:12;;;;;;;0.60;0.60;;;10.20;99.90;;;;;;4895869;29;20234;-64
2023/01/04 10:58:45;;;;;;;1.02;1.02;;;10.20;99.90;;;;;;4894552;29;20218;-65
2023/01/04 11:01:16;;;;;;;0.57;0.57;;;10.20;99.90;;;;;;4881182;29;20241;-64
2023/01/04 11:03:50;;;;;;;0.90;0.90;;;10.20;99.90;;;;;;4893688;29;20214;-64
2023/01/04 11:06:21;;;;;;;0.65;0.65;;;10.20;99.90;;;;;;4888470;29;20215;-65
2023/01/04 11:08:53;;;;;;;1.15;1.15;;;10.20;99.90;;;;;;4895427;29;20254;-64
2023/01/04 11:11:25;;;;;;;0.70;0.70;;;10.20;99.90;;;;;;4888087;29;20258;-64
2023/01/04 11:13:52;;;;;;;0.68;0.68;;;10.20;99.90;;;;;;4895288;29;20217;-65
2023/01/04 11:16:19;;;;;;;0.73;0.73;;;10.20;99.90;;;;;;4887267;29;20218;-64
2023/01/04 11:18:49;;;;;;;0.73;0.73;;;10.30;99.90;;;;;;4890018;29;20512;-64
2023/01/04 11:21:21;;;;;;;0.50;0.50;;;10.30;99.90;;;;;;4881851;29;20239;-65
2023/01/04 11:23:48;;;;;;;0.93;0.93;;;10.30;99.90;;;;;;4888654;29;20226;-64
2023/01/04 11:26:19;;;;;;;0.63;0.63;;;10.30;99.90;;;;;;4887176;29;20224;-65
2023/01/04 11:28:49;;;;;;;1.25;1.20;;;10.40;99.90;;;;;;4929804;23;20249;-68
2023/01/04 11:31:22;;;;;;;0.50;0.47;;;10.40;99.90;;;;;;4914773;29;20231;-70
2023/01/04 11:33:56;;;;;;;0.80;0.80;;;10.40;99.90;;;;;;4913126;29;20212;-68
2023/01/04 11:36:41;;;;;;;0.80;0.80;;;10.40;99.90;;;;;;4907594;29;20223;-66
2023/01/04 11:39:19;;;;;;;0.45;0.45;;;10.40;99.90;;;;;;4893084;29;20240;-67
2023/01/04 11:41:56;;;;;;;1.15;1.15;;;10.40;99.90;;;;;;4893112;29;20663;-67
2023/01/04 11:44:29;;;;;;;0.50;0.43;;;10.40;99.90;;;;;;4894905;29;20212;-67
2023/01/04 11:47:11;;;;;;;0.40;0.40;;;10.50;99.90;;;;;;4892947;29;20615;-66
2023/01/04 11:49:42;;;;;;;0.60;0.60;;;10.50;99.90;;;;;;4892809;29;20590;-67
2023/01/04 11:52:29;;;;;;;0.47;0.45;;;10.40;99.90;;;;;;4893925;29;20229;-68
2023/01/04 11:54:56;;;;;;;0.40;0.40;;;10.40;99.90;;;;;;4893866;29;20218;-67
2023/01/04 11:57:22;;;;;;;0.60;0.60;;;10.40;99.90;;;;;;4895738;29;20225;-66
2023/01/04 12:00:08;;;;;;;0.50;0.50;;;10.40;99.90;;;;;;4891336;29;20560;-66
2023/01/04 12:02:35;;;;;;;0.30;0.30;;;10.50;99.90;;;;;;4882314;29;20212;-66
2023/01/04 12:05:09;;;;;;;0.95;0.95;;;10.50;99.90;;;;;;4889910;29;20213;-67
2023/01/04 12:07:36;;;;;;;0.80;0.80;;;10.50;99.90;;;;;;4895088;29;20232;-66
2023/01/04 12:10:20;;;;;;;0.77;0.57;;;10.50;99.90;;;;;;4891689;29;20209;-66
2023/01/04 12:12:47;;;;;;;0.45;0.45;;;10.50;99.90;;;;;;4894944;29;20216;-67
2023/01/04 12:15:22;;;;;;;0.38;0.38;;;10.50;99.90;;;;;;4889813;29;20237;-67
2023/01/04 12:17:53;;;;;;;0.57;0.57;;;10.50;99.90;;;;;;4891693;29;20238;-67
2023/01/04 12:20:24;;;;;;;0.93;0.82;;;10.50;99.90;;;;;;4891466;29;20236;-67
2023/01/04 12:22:51;;;;;;;0.63;0.63;;;10.50;99.90;;;;;;4894978;29;20212;-66
2023/01/04 12:25:31;;;;;;;1.20;1.20;;;10.60;99.90;;;;;;4893424;29;20220;-67
2023/01/04 12:27:57;;;;;;;1.20;1.20;;;10.60;99.90;;;;;;4892526;29;20239;-65
2023/01/04 12:30:40;;;;;;;0.88;0.88;;;10.60;99.90;;;;;;4891442;29;20213;-66
2023/01/04 12:33:39;;;;;;;0.80;0.80;;;10.60;99.90;;;;;;4891649;29;20208;-66
2023/01/04 12:36:09;;;;;;;1.15;1.15;;;10.60;99.90;;;;;;4892562;29;20260;-67
2023/01/04 12:39:12;;;;;;;1.10;1.10;;;10.70;99.90;;;;;;4892923;29;20228;-66
2023/01/04 12:42:20;;;;;;;0.40;0.40;;;10.70;99.90;;;;;;4890537;29;20205;-67
2023/01/04 12:45:14;;;;;;;0.90;0.90;;;10.70;99.90;;;;;;4879565;29;20260;-68
2023/01/04 12:50:28;;;;;;;0.20;0.20;;;10.70;99.90;;;;;;4895971;29;20555;-67
2023/01/04 12:52:57;;;;;;;1.00;1.00;;;10.80;99.90;;;;;;4897345;29;20209;-67
2023/01/04 12:55:46;;;;;;;0.82;0.82;;;10.80;99.90;;;;;;4890475;29;20218;-67
2023/01/04 12:58:39;;;;;;;0.30;0.30;;;10.80;99.90;;;;;;4897911;29;20245;-67
2023/01/04 13:01:25;;;;;;;0.57;0.57;;;10.80;99.90;;;;;;4889835;29;20214;-67
2023/01/04 13:03:57;;;;;;;0.40;0.40;;;10.80;99.90;;;;;;4894762;29;20216;-66
2023/01/04 13:06:26;;;;;;;0.47;0.47;;;10.80;99.90;;;;;;4887602;29;20239;-66
2023/01/04 13:08:54;;;;;;;0.40;0.40;;;10.80;99.90;;;;;;4896002;29;20232;-66
2023/01/04 13:11:52;;;;;;;1.00;0.55;;;10.80;99.90;;;;;;4892008;29;20347;-67
2023/01/04 13:14:29;;;;;;;0.70;0.70;;;10.90;99.90;;;;;;4895405;29;20213;-66
2023/01/04 13:17:13;;;;;;;0.80;0.80;;;10.90;99.90;;;;;;4893812;29;20651;-68
2023/01/04 13:19:41;;;;;;;0.70;0.70;;;10.90;99.90;;;;;;4890082;29;20224;-67
2023/01/04 13:22:16;;;;;;;0.75;0.75;;;10.90;99.90;;;;;;4896629;29;20221;-68
2023/01/04 13:24:46;;;;;;;0.50;0.50;;;10.90;99.90;;;;;;4887135;29;20239;-66
2023/01/04 13:27:16;;;;;;;0.73;0.73;;;10.90;99.90;;;;;;4895124;29;20272;-67
2023/01/04 13:29:44;;;;;;;5.68;1.13;;;11.00;99.90;;;;;;4890908;29;20236;-66
2023/01/04 13:32:12;;;;;;;0.60;0.60;;;11.00;99.90;;;;;;4892023;29;20236;-67
2023/01/04 13:34:44;;;;;;;1.23;1.13;;;11.00;99.90;;;;;;4893931;29;20245;-66
2023/01/04 13:37:29;;;;;;;0.70;0.70;;;11.00;99.90;;;;;;4892170;29;20254;-66
2023/01/04 13:40:23;;;;;;;0.55;0.55;;;11.00;99.90;;;;;;4896822;29;20558;-66
2023/01/04 13:42:55;;;;;;;0.82;0.82;;;11.00;99.90;;;;;;4891582;29;20276;-67
2023/01/04 13:45:58;;;;;;;0.68;0.68;;;11.10;99.90;;;;;;4893325;29;20312;-67
2023/01/04 13:48:30;;;;;;;0.50;0.50;;;11.10;99.90;;;;;;4896493;29;20241;-65
2023/01/04 13:51:01;;;;;;;0.60;0.60;;;11.10;99.90;;;;;;4895837;29;20234;-67
2023/01/04 13:53:30;;;;;;;0.70;0.70;;;11.10;99.90;;;;;;4897090;29;20209;-67
2023/01/04 13:56:00;;;;;;;0.65;0.65;;;11.10;99.90;;;;;;4896770;29;20217;-65
2023/01/04 13:58:29;;;;;;;1.17;1.17;;;11.10;99.90;;;;;;4889521;29;20237;-67
2023/01/04 14:00:59;;;;;;;0.57;0.50;;;11.00;99.90;;;;;;4896341;29;20204;-67
2023/01/04 14:03:31;;;;;;;0.50;0.50;;;11.00;99.90;;;;;;4896760;29;20658;-67
2023/01/04 14:06:16;;;;;;;0.40;0.40;;;11.00;99.90;;;;;;4895090;29;20293;-66
2023/01/04 14:08:50;;;;;;;0.45;0.45;;;11.00;99.90;;;;;;4895167;29;20236;-67
2023/01/04 14:14:20;;;;;;;0.70;0.70;;;10.90;99.90;;;;;;4893190;29;20395;-67
2023/01/04 14:16:47;;;;;;;0.55;0.55;;;10.90;99.90;;;;;;4892392;29;20591;-66
2023/01/04 14:19:43;;;;;;;0.50;0.50;;;11.00;99.90;;;;;;4884250;29;20217;-67
2023/01/04 14:22:38;;;;;;;0.55;0.55;;;11.00;99.90;;;;;;4891067;29;20210;-67
2023/01/04 14:25:32;;;;;;;0.40;0.40;;;11.00;99.90;;;;;;4893417;29;20212;-67
2023/01/04 14:28:18;;;;;;;0.52;0.52;;;11.10;99.90;;;;;;4896013;29;20300;-67
2023/01/04 14:30:46;;;;;;;0.50;0.50;;;11.10;99.90;;;;;;4895062;29;20231;-67
2023/01/04 14:33:17;;;;;;;0.80;0.70;;;11.10;99.90;;;;;;4893452;29;20236;-67
2023/01/04 14:35:44;;;;;;;0.73;0.73;;;11.10;99.90;;;;;;4895623;29;20280;-67
2023/01/04 14:38:16;;;;;;;0.50;0.50;;;11.10;99.90;;;;;;4891508;29;20249;-65
2023/01/04 14:40:43;;;;;;;0.50;0.50;;;11.10;99.90;;;;;;4895263;29;20205;-66
2023/01/04 14:43:42;;;;;;;1.20;1.20;;;11.10;99.90;;;;;;4889320;29;20224;-66
2023/01/04 14:46:10;;;;;;;0.85;0.85;;;11.10;99.90;;;;;;4891731;29;20217;-67
2023/01/04 14:48:36;;;;;;;1.48;1.48;;;11.10;99.90;;;;;;4891887;29;20259;-68
2023/01/04 14:51:05;;;;;;;1.30;1.20;;;11.10;99.90;;;;;;4891803;29;20216;-66
2023/01/04 14:53:31;;;;;;;1.02;1.02;;;11.10;99.90;;;;;;4893505;29;20225;-66
2023/01/04 14:55:58;;;;;;;0.70;0.70;;;11.10;99.90;;;;;;4891741;29;20213;-66
2023/01/04 14:58:25;;;;;;;0.90;0.90;;;11.20;99.90;;;;;;4893345;29;20237;-66
2023/01/04 15:00:53;;;;;;;0.93;0.93;;;11.20;99.90;;;;;;4890591;29;20217;-68
2023/01/04 15:03:20;;;;;;;0.88;0.88;;;11.20;99.90;;;;;;4894674;29;20293;-67
2023/01/04 15:05:47;;;;;;;0.75;0.75;;;11.20;99.90;;;;;;4888092;29;20217;-66
2023/01/04 15:08:14;;;;;;;1.25;1.25;;;11.20;99.90;;;;;;4887682;29;20233;-66
2023/01/04 15:10:40;;;;;;;0.60;0.60;;;11.20;99.90;;;;;;4894218;29;20214;-68
2023/01/04 15:13:07;;;;;;;0.60;0.60;;;11.10;99.90;;;;;;4889307;29;20492;-68
2023/01/04 15:15:34;;;;;;;0.60;0.60;;;11.20;99.90;;;;;;4893518;29;20375;-67
2023/01/04 15:18:02;;;;;;;0.50;0.50;;;11.10;99.90;;;;;;4896152;29;20839;-67
2023/01/04 15:20:29;;;;;;;0.50;0.50;;;11.20;99.90;;;;;;4892887;29;20304;-67
2023/01/04 15:22:56;;;;;;;0.47;0.47;;;11.20;99.90;;;;;;4885739;29;20282;-66
2023/01/04 15:25:24;;;;;;;3.17;1.45;;;11.20;99.90;;;;;;4889967;29;20209;-68
2023/01/04 15:27:50;;;;;;;2.13;1.92;;;11.20;99.90;;;;;;4888264;29;20272;-68
2023/01/04 15:30:17;;;;;;;0.32;0.32;;;11.20;99.90;;;;;;4886275;29;20222;-66
2023/01/04 15:32:44;;;;;;;0.50;0.50;;;11.20;99.90;;;;;;4891089;29;20261;-66
2023/01/04 15:35:15;;;;;;;0.30;0.30;;;11.20;99.90;;;;;;4891681;29;20228;-67
2023/01/04 15:37:42;;;;;;;26.40;12.03;;;11.20;99.90;;;;;;4889613;29;20264;-66
2023/01/04 15:40:10;;;;;;;0.67;0.67;;;11.10;99.90;;;;;;4890670;29;20470;-68
2023/01/04 15:45:22;;;;;;;0.20;0.20;;;11.10;99.90;;;;;;4890376;29;20219;-67
2023/01/04 15:47:49;;;;;;;1.95;1.75;;;11.10;99.90;;;;;;4894410;29;20234;-68
2023/01/04 15:50:17;;;;;;;1.50;1.35;;;11.10;99.90;;;;;;4892702;29;20217;-68
2023/01/04 15:52:44;;;;;;;1.98;0.95;;;11.10;99.90;;;;;;4890328;29;20238;-68
2023/01/04 15:55:13;;;;;;;0.80;0.80;;;11.10;99.90;;;;;;4886560;29;20233;-67
2023/01/04 15:57:39;;;;;;;0.80;0.80;;;11.20;99.90;;;;;;4893367;29;20320;-67
2023/01/04 16:00:07;;;;;;;1.05;0.95;;;11.20;99.90;;;;;;4881328;29;20217;-67
2023/01/04 16:02:34;;;;;;;0.73;0.63;;;11.20;99.90;;;;;;4895055;29;20215;-67
2023/01/04 16:05:01;;;;;;;1.08;0.70;;;11.20;99.90;;;;;;4887398;29;20237;-67
2023/01/04 16:07:29;;;;;;;0.88;0.88;;;11.10;99.90;;;;;;4884471;29;20698;-67
2023/01/04 16:09:55;;;;;;;0.90;0.90;;;11.10;99.90;;;;;;4890919;29;20213;-67
2023/01/04 16:15:07;;;;;;;0.75;0.75;;;11.20;99.90;;;;;;4893236;29;20263;-68
2023/01/04 16:17:34;;;;;;;1.23;1.23;;;11.10;99.90;;;;;;4892356;29;20323;-67
2023/01/04 16:20:01;;;;;;;0.75;0.75;;;11.10;99.90;;;;;;4893932;29;20226;-67
2023/01/04 16:22:29;;;;;;;0.88;0.88;;;11.10;99.90;;;;;;4891705;29;20666;-66
2023/01/04 16:24:56;;;;;;;1.02;0.75;;;11.10;99.90;;;;;;4892892;29;20220;-67
2023/01/04 16:27:22;;;;;;;1.45;1.10;;;11.10;99.90;;;;;;4894252;29;20256;-68
2023/01/04 16:29:50;;;;;;;0.95;0.95;;;11.10;99.90;;;;;;4895693;29;20638;-68
2023/01/04 16:32:17;;;;;;;0.70;0.70;;;11.20;99.90;;;;;;4890232;29;20259;-68
2023/01/04 16:34:43;;;;;;;0.65;0.65;;;11.20;99.90;;;;;;4892462;29;20239;-68
2023/01/04 16:37:10;;;;;;;2.50;1.20;;;11.20;99.90;;;;;;4891263;29;20248;-68
2023/01/04 16:39:39;;;;;;;0.73;0.60;;;11.20;99.90;;;;;;4893234;29;20232;-67
2023/01/04 16:42:05;;;;;;;1.48;1.20;;;11.20;99.90;;;;;;4892470;29;20288;-68
2023/01/04 16:44:32;;;;;;;0.80;0.75;;;11.20;99.90;;;;;;4896566;29;20214;-67
2023/01/04 16:46:59;;;;;;;0.75;0.75;;;11.20;99.90;;;;;;4894824;29;20243;-68
2023/01/04 16:49:26;;;;;;;0.95;0.95;;;11.20;99.90;;;;;;4894043;29;20337;-68
2023/01/04 16:51:52;;;;;;;1.70;1.70;;;11.20;99.90;;;;;;4897714;29;20267;-66
2023/01/04 16:54:19;;;;;;;1.67;1.10;;;11.20;99.90;;;;;;4896892;29;20280;-66
2023/01/04 16:56:48;;;;;;;1.00;1.00;;;11.20;99.90;;;;;;4897560;29;20210;-67
2023/01/04 16:59:17;;;;;;;7.40;1.10;;;11.20;99.90;;;;;;4898215;29;20209;-66
2023/01/04 17:01:48;;;;;;;4.97;1.52;;;11.20;99.90;;;;;;4893828;29;20298;-67
2023/01/04 17:04:14;;;;;;;0.60;0.60;;;11.20;99.90;;;;;;4889731;29;20217;-66
2023/01/04 17:06:44;;;;;;;4.43;0.90;;;11.20;99.90;;;;;;4891148;29;20219;-66
2023/01/04 17:09:13;;;;;;;1.20;0.88;;;11.20;99.90;;;;;;4893288;29;20216;-67
2023/01/04 17:11:40;;;;;;;0.70;0.70;;;11.20;99.90;;;;;;4895531;29;20219;-67
2023/01/04 17:14:12;;;;;;;1.95;0.88;;;11.20;99.90;;;;;;4893127;29;20217;-66
2023/01/04 17:16:39;;;;;;;1.60;1.60;;;11.20;99.90;;;;;;4892251;29;20213;-67
2023/01/04 17:19:06;;;;;;;0.52;0.52;;;11.20;99.90;;;;;;4892643;29;20214;-68
2023/01/04 17:21:33;;;;;;;1.25;1.15;;;11.30;99.90;;;;;;4895275;29;20223;-68
2023/01/04 17:23:59;;;;;;;1.05;1.05;;;11.30;99.90;;;;;;4893195;29;20216;-67
2023/01/04 17:26:31;;;;;;;5.07;2.00;;;11.20;99.90;;;;;;4890603;29;20748;-67
2023/01/04 17:28:59;;;;;;;5.68;1.50;;;11.20;99.90;;;;;;4894392;29;20240;-67
2023/01/04 17:31:30;;;;;;;1.35;1.25;;;11.20;99.90;;;;;;4897437;29;20219;-67
2023/01/04 17:33:56;;;;;;;1.90;1.75;;;11.30;99.90;;;;;;4896366;29;20715;-68
2023/01/04 17:36:23;;;;;;;1.20;1.20;;;11.30;99.90;;;;;;4887595;29;20822;-68
2023/01/04 17:38:50;;;;;;;2.28;1.30;;;11.30;99.90;;;;;;4890400;29;20594;-68
2023/01/04 17:41:20;;;;;;;1.63;0.82;;;11.30;99.90;;;;;;4893775;29;20919;-68
2023/01/04 17:43:48;;;;;;;1.13;1.13;;;11.30;99.90;;;;;;4888673;29;20219;-67
2023/01/04 17:46:16;;;;;;;2.03;1.92;;;11.30;99.90;;;;;;4887445;29;20217;-67
2023/01/04 17:48:45;;;;;;;1.15;1.05;;;11.30;99.90;;;;;;4897407;29;20232;-68
2023/01/04 17:51:13;;;;;;;1.38;1.25;;;11.30;99.90;;;;;;4893863;29;20208;-67
2023/01/04 17:53:40;;;;;;;1.48;1.38;;;11.30;99.90;;;;;;4893800;29;20628;-66
2023/01/04 17:56:09;;;;;;;8.63;2.03;;;11.30;99.90;;;;;;4893871;29;20213;-67
2023/01/04 17:58:36;;;;;;;1.00;1.00;;;11.30;99.90;;;;;;4895164;29;20634;-68
2023/01/04 18:01:09;;;;;;;2.10;2.10;;;11.30;99.90;;;;;;4893216;29;20214;-67
2023/01/04 18:03:36;;;;;;;8.88;1.73;;;11.30;99.90;;;;;;4893514;29;20196;-68
2023/01/04 18:06:04;;;;;;;4.57;2.15;;;11.30;99.90;;;;;;4893099;29;20213;-66
2023/01/04 18:08:31;;;;;;;4.28;1.70;;;11.30;99.90;;;;;;4895493;29;20884;-67
2023/01/04 18:10:57;;;;;;;1.65;1.58;;;11.40;99.90;;;;;;4894430;29;20217;-67
2023/01/04 18:13:24;;;;;;;1.00;1.00;;;11.40;99.90;;;;;;4892296;29;20231;-65
2023/01/04 18:15:51;;;;;;;1.00;1.00;;;11.40;99.90;;;;;;4895352;29;20220;-67
2023/01/04 18:18:18;;;;;;;2.88;1.80;;;11.40;99.90;;;;;;4895210;29;20708;-67
2023/01/04 18:20:45;;;;;;;8.95;4.43;;;11.40;99.90;;;;;;4888720;29;20293;-66